Time;durP1;ratioP1;P1;durP2;ratioP2;P2;SDS_P1;SDS_P2;PMS_P1;PMS_P2;Temp;Humidity;BMP_temperature;BMP_pressure;BME280_temperature;BME280_humidity;BME280_pressure;Samples;Min_cycle;Max_cycle;Signal;HPM_P1;HPM_P2
2022/12/31 00:00:02;;;;;;;6.90;3.97;;;11.80;99.90;;;;;;5083470;28;20071;-67
2022/12/31 00:02:28;;;;;;;7.10;4.60;;;11.90;99.90;;;;;;5084122;28;20546;-66
2022/12/31 00:04:54;;;;;;;8.32;4.63;;;11.80;99.90;;;;;;5062084;28;20036;-67
2022/12/31 00:07:19;;;;;;;6.82;4.47;;;11.80;99.90;;;;;;5083203;28;20085;-67
2022/12/31 00:09:45;;;;;;;10.48;4.82;;;11.80;99.90;;;;;;5082090;28;20480;-66
2022/12/31 00:12:11;;;;;;;6.05;4.03;;;11.80;99.90;;;;;;5086612;28;20036;-67
2022/12/31 00:14:36;;;;;;;6.32;3.63;;;11.80;99.90;;;;;;5081893;28;20064;-67
2022/12/31 00:17:02;;;;;;;7.68;4.68;;;11.80;99.90;;;;;;5085643;28;20038;-66
2022/12/31 00:19:28;;;;;;;7.28;4.60;;;11.70;99.90;;;;;;5082838;28;20337;-67
2022/12/31 00:21:54;;;;;;;7.53;5.20;;;11.70;99.90;;;;;;5082752;28;20126;-67
2022/12/31 00:24:19;;;;;;;9.93;5.82;;;11.70;99.90;;;;;;5082572;28;20399;-67
2022/12/31 00:26:45;;;;;;;8.88;5.47;;;11.70;99.90;;;;;;5085354;28;20545;-67
2022/12/31 00:29:11;;;;;;;10.73;5.45;;;11.80;99.90;;;;;;5078653;28;20124;-67
2022/12/31 00:31:37;;;;;;;12.60;6.53;;;11.80;99.90;;;;;;5078680;28;20050;-67
2022/12/31 00:34:04;;;;;;;9.02;6.35;;;11.70;99.90;;;;;;5082765;28;20048;-67
2022/12/31 00:36:33;;;;;;;13.45;6.85;;;11.70;99.90;;;;;;5075088;28;20112;-67
2022/12/31 00:39:00;;;;;;;13.65;5.70;;;11.70;99.90;;;;;;5076961;28;20123;-67
2022/12/31 00:41:27;;;;;;;13.27;5.90;;;11.70;99.90;;;;;;5066579;28;20052;-66
2022/12/31 00:43:53;;;;;;;10.15;5.72;;;11.70;99.90;;;;;;5081941;28;20032;-66
2022/12/31 00:46:20;;;;;;;11.05;5.43;;;11.80;99.90;;;;;;5077100;28;20052;-66
2022/12/31 00:48:46;;;;;;;9.68;5.43;;;11.80;99.90;;;;;;5080441;28;20344;-67
2022/12/31 00:51:15;;;;;;;6.63;5.38;;;11.70;99.90;;;;;;5084345;28;20079;-67
2022/12/31 00:53:40;;;;;;;10.88;5.47;;;11.70;99.90;;;;;;5084265;28;20044;-66
2022/12/31 00:56:13;;;;;;;8.95;5.22;;;11.70;99.90;;;;;;5074642;28;20032;-65
2022/12/31 00:58:39;;;;;;;11.50;6.28;;;11.70;99.90;;;;;;5076210;28;20042;-65
2022/12/31 01:01:11;;;;;;;9.32;5.00;;;11.70;99.90;;;;;;5083174;28;20039;-64
2022/12/31 01:03:37;;;;;;;11.77;4.85;;;11.70;99.90;;;;;;5078411;28;20038;-65
2022/12/31 01:06:03;;;;;;;5.90;4.65;;;11.70;99.90;;;;;;5080436;28;20453;-65
2022/12/31 01:08:29;;;;;;;6.75;4.68;;;11.70;99.90;;;;;;5079948;28;20106;-65
2022/12/31 01:13:39;;;;;;;7.10;4.38;;;11.80;99.90;;;;;;5079593;28;20078;-65
2022/12/31 01:16:09;;;;;;;9.27;4.20;;;11.70;99.90;;;;;;5080715;28;20036;-65
2022/12/31 01:18:35;;;;;;;10.95;4.82;;;11.70;99.90;;;;;;5078100;28;20408;-65
2022/12/31 01:21:04;;;;;;;6.72;4.30;;;11.80;99.90;;;;;;5063053;28;20051;-66
2022/12/31 01:23:31;;;;;;;11.32;5.00;;;11.80;99.90;;;;;;5081461;28;20032;-66
2022/12/31 01:26:02;;;;;;;9.80;4.70;;;11.70;99.90;;;;;;5083162;28;20115;-66
2022/12/31 01:28:29;;;;;;;7.80;3.95;;;11.70;99.90;;;;;;5063718;28;20116;-66
2022/12/31 01:30:54;;;;;;;6.35;4.10;;;11.70;99.90;;;;;;5082280;28;20032;-66
2022/12/31 01:33:20;;;;;;;5.53;3.50;;;11.70;99.90;;;;;;5078336;28;20040;-65
2022/12/31 01:35:47;;;;;;;7.38;4.10;;;11.70;99.90;;;;;;5083315;28;20032;-67
2022/12/31 01:38:12;;;;;;;7.13;4.00;;;11.70;99.90;;;;;;5079140;28;20047;-66
2022/12/31 01:40:39;;;;;;;7.35;3.78;;;11.70;99.90;;;;;;5081595;28;20048;-66
2022/12/31 01:43:15;;;;;;;6.38;3.55;;;11.60;99.90;;;;;;5077928;28;20492;-67
2022/12/31 01:45:42;;;;;;;7.63;3.50;;;11.70;99.90;;;;;;5079214;28;20047;-66
2022/12/31 01:48:12;;;;;;;6.30;3.58;;;11.60;99.90;;;;;;5078373;28;20036;-65
2022/12/31 01:50:39;;;;;;;6.05;2.88;;;11.60;99.90;;;;;;5073980;28;20072;-64
2022/12/31 01:53:07;;;;;;;5.40;3.00;;;11.60;99.90;;;;;;5078007;28;20127;-64
2022/12/31 01:55:47;;;;;;;4.05;3.05;;;11.60;99.90;;;;;;5081339;28;20047;-65
2022/12/31 01:58:18;;;;;;;5.90;2.90;;;11.60;99.90;;;;;;5080824;28;20040;-65
2022/12/31 02:00:44;;;;;;;7.38;3.15;;;11.60;99.90;;;;;;5084982;28;20045;-69
2022/12/31 02:03:11;;;;;;;6.35;3.17;;;11.60;99.90;;;;;;5083968;28;20028;-69
2022/12/31 02:06:03;;;;;;;4.75;2.72;;;11.60;99.90;;;;;;5094452;28;20051;-68
2022/12/31 02:08:29;;;;;;;8.27;3.40;;;11.50;99.90;;;;;;5069623;28;20062;-69
2022/12/31 02:10:55;;;;;;;6.28;2.85;;;11.50;99.90;;;;;;5072880;28;20119;-68
2022/12/31 02:13:21;;;;;;;7.07;2.72;;;11.50;99.90;;;;;;5083627;28;20047;-69
2022/12/31 02:16:15;;;;;;;5.72;2.85;;;11.50;99.90;;;;;;5091493;28;20056;-68
2022/12/31 02:18:48;;;;;;;4.90;2.90;;;11.50;99.90;;;;;;5095198;28;20595;-68
2022/12/31 02:21:17;;;;;;;4.82;2.38;;;11.40;99.90;;;;;;5097799;28;20539;-68
2022/12/31 02:24:24;;;;;;;6.90;2.88;;;11.40;99.90;;;;;;5082128;28;20039;-68
2022/12/31 02:26:58;;;;;;;8.18;2.60;;;11.40;99.90;;;;;;5091307;28;20032;-68
2022/12/31 02:29:36;;;;;;;5.13;2.13;;;11.40;99.90;;;;;;5081855;28;20097;-67
2022/12/31 02:32:20;;;;;;;6.10;2.30;;;11.40;99.90;;;;;;5085815;28;20395;-67
2022/12/31 02:34:53;;;;;;;4.82;2.03;;;11.40;99.90;;;;;;5082227;28;20038;-67
2022/12/31 02:37:21;;;;;;;5.82;2.17;;;11.40;99.90;;;;;;5085078;28;20054;-67
2022/12/31 02:39:48;;;;;;;5.72;1.67;;;11.30;99.90;;;;;;5079471;28;20110;-67
2022/12/31 02:42:14;;;;;;;4.03;1.40;;;11.30;99.90;;;;;;5076025;28;20047;-67
2022/12/31 02:44:41;;;;;;;4.28;1.02;;;11.30;99.90;;;;;;5063685;28;20340;-67
2022/12/31 02:47:12;;;;;;;2.45;0.70;;;11.20;99.90;;;;;;5083908;28;20024;-67
2022/12/31 02:50:04;;;;;;;4.55;0.80;;;11.20;99.90;;;;;;5074037;28;20044;-67
2022/12/31 02:52:48;;;;;;;2.60;0.50;;;11.20;99.90;;;;;;5084372;28;20040;-67
2022/12/31 02:55:42;;;;;;;3.83;0.50;;;11.10;99.90;;;;;;5085177;28;20035;-67
2022/12/31 03:02:12;;;;;;;2.40;0.40;;;11.10;99.90;;;;;;5052845;28;20131;-67
2022/12/31 03:06:45;;;;;;;6.00;0.60;;;10.90;99.90;;;;;;5085509;28;20411;-68
2022/12/31 03:09:13;;;;;;;2.80;0.52;;;10.90;99.90;;;;;;5067586;28;20477;-68
2022/12/31 03:14:23;;;;;;;3.47;0.50;;;10.90;99.90;;;;;;5078903;28;20537;-68
2022/12/31 03:16:49;;;;;;;2.92;0.47;;;10.90;99.90;;;;;;5084910;28;20107;-68
2022/12/31 03:27:28;;;;;;;5.05;1.08;;;10.80;99.90;;;;;;5082849;28;20463;-68
2022/12/31 03:29:54;;;;;;;3.63;0.90;;;10.80;99.90;;;;;;5080131;28;20044;-68
2022/12/31 03:32:20;;;;;;;6.00;1.02;;;10.80;99.90;;;;;;5085266;28;20392;-68
2022/12/31 03:34:45;;;;;;;7.78;1.70;;;10.80;99.90;;;;;;5083366;28;20043;-68
2022/12/31 03:37:11;;;;;;;5.55;1.30;;;10.80;99.90;;;;;;5081471;28;20043;-68
2022/12/31 03:39:37;;;;;;;7.13;0.90;;;10.80;99.90;;;;;;5078941;28;20075;-68
2022/12/31 03:42:03;;;;;;;4.78;1.33;;;10.80;99.90;;;;;;5085782;28;20052;-68
2022/12/31 03:44:28;;;;;;;5.85;1.30;;;10.80;99.90;;;;;;5081430;28;20075;-68
2022/12/31 03:46:54;;;;;;;5.28;1.60;;;10.80;99.90;;;;;;5059389;28;20028;-68
2022/12/31 03:49:20;;;;;;;6.65;1.67;;;10.80;99.90;;;;;;5084523;28;20113;-68
2022/12/31 03:51:45;;;;;;;7.78;1.95;;;10.90;99.90;;;;;;5060266;28;20463;-68
2022/12/31 03:54:11;;;;;;;8.48;1.70;;;10.90;99.90;;;;;;5088965;28;20083;-68
2022/12/31 03:56:37;;;;;;;4.78;2.45;;;10.90;99.90;;;;;;5079690;28;20070;-68
2022/12/31 03:59:03;;;;;;;7.30;1.95;;;10.90;99.90;;;;;;5081863;28;20044;-68
2022/12/31 04:01:28;;;;;;;6.82;2.47;;;10.90;99.90;;;;;;5082331;28;20397;-68
2022/12/31 04:03:54;;;;;;;7.30;2.42;;;11.00;99.90;;;;;;5082996;28;20032;-68
2022/12/31 04:06:20;;;;;;;8.07;2.70;;;11.00;99.90;;;;;;5071338;28;20063;-68
2022/12/31 04:08:45;;;;;;;6.10;2.60;;;11.00;99.90;;;;;;5088004;28;20028;-68
2022/12/31 04:11:11;;;;;;;5.63;2.53;;;11.10;99.90;;;;;;5086564;28;20040;-68
2022/12/31 04:13:36;;;;;;;6.78;2.72;;;11.00;99.90;;;;;;5091565;28;20325;-68
2022/12/31 04:16:02;;;;;;;9.88;2.85;;;11.00;99.90;;;;;;5088017;28;20139;-68
2022/12/31 04:18:28;;;;;;;6.45;2.40;;;11.00;99.90;;;;;;5072241;28;20098;-68
2022/12/31 04:20:54;;;;;;;5.85;2.90;;;11.10;99.90;;;;;;5092929;28;20047;-68
2022/12/31 04:23:19;;;;;;;8.63;2.60;;;11.10;99.90;;;;;;5073554;28;20037;-68
2022/12/31 04:25:45;;;;;;;5.82;3.20;;;11.10;99.90;;;;;;5091123;28;20067;-68
2022/12/31 04:28:11;;;;;;;7.72;2.40;;;11.10;99.90;;;;;;5083329;28;20032;-68
2022/12/31 04:30:36;;;;;;;8.13;2.40;;;11.00;99.90;;;;;;5065896;28;20044;-68
2022/12/31 04:33:02;;;;;;;7.07;2.40;;;11.10;99.90;;;;;;5091108;28;20036;-67
2022/12/31 04:35:28;;;;;;;8.80;2.20;;;11.10;99.90;;;;;;5089302;28;20126;-68
2022/12/31 04:37:54;;;;;;;4.85;1.90;;;11.10;99.90;;;;;;5086233;28;20036;-68
2022/12/31 04:40:19;;;;;;;6.60;2.03;;;11.00;99.90;;;;;;5088714;28;20036;-68
2022/12/31 04:42:45;;;;;;;9.27;1.83;;;11.00;99.90;;;;;;5088894;28;20047;-68
2022/12/31 04:45:11;;;;;;;7.75;1.80;;;11.00;99.90;;;;;;5088268;28;20025;-68
2022/12/31 04:47:36;;;;;;;8.23;1.60;;;11.00;99.90;;;;;;5092717;28;20059;-68
2022/12/31 04:50:02;;;;;;;6.25;1.40;;;11.00;99.90;;;;;;5092821;28;20116;-68
2022/12/31 04:52:28;;;;;;;10.48;1.70;;;11.10;99.90;;;;;;5089423;28;20447;-69
2022/12/31 04:54:54;;;;;;;5.03;1.33;;;11.00;99.90;;;;;;5083456;28;20400;-69
2022/12/31 04:57:19;;;;;;;4.90;1.55;;;11.00;99.90;;;;;;5089202;28;20042;-68
2022/12/31 04:59:45;;;;;;;4.38;1.67;;;11.00;99.90;;;;;;5091780;28;20043;-68
2022/12/31 05:02:11;;;;;;;4.45;1.60;;;11.00;99.90;;;;;;5090208;28;20071;-68
2022/12/31 05:04:36;;;;;;;7.63;2.20;;;11.00;99.90;;;;;;5087453;28;20095;-68
2022/12/31 05:07:02;;;;;;;6.55;2.03;;;11.00;99.90;;;;;;5095753;28;20048;-68
2022/12/31 05:09:28;;;;;;;6.68;2.50;;;10.90;99.90;;;;;;5092466;28;20134;-68
2022/12/31 05:11:54;;;;;;;9.70;2.20;;;11.00;99.90;;;;;;5088518;28;20055;-68
2022/12/31 05:14:20;;;;;;;7.50;2.20;;;10.90;99.90;;;;;;5053402;28;20089;-69
2022/12/31 05:16:45;;;;;;;5.82;1.88;;;10.90;99.90;;;;;;5094245;28;20032;-68
2022/12/31 05:19:11;;;;;;;9.98;2.50;;;10.90;99.90;;;;;;5088685;28;20066;-69
2022/12/31 05:21:37;;;;;;;8.68;2.70;;;10.90;99.90;;;;;;5087403;28;20766;-69
2022/12/31 05:24:03;;;;;;;6.95;2.67;;;10.90;99.90;;;;;;5086388;28;20075;-69
2022/12/31 05:26:29;;;;;;;7.07;2.35;;;10.90;99.90;;;;;;5087517;28;20048;-69
2022/12/31 05:28:55;;;;;;;6.90;2.13;;;10.90;99.90;;;;;;5069926;28;20426;-68
2022/12/31 05:31:21;;;;;;;8.15;2.17;;;10.90;99.90;;;;;;5087801;28;20067;-68
2022/12/31 05:33:47;;;;;;;7.30;1.70;;;10.90;99.90;;;;;;5080447;28;20036;-68
2022/12/31 05:36:13;;;;;;;6.20;2.05;;;10.90;99.90;;;;;;5075709;28;20051;-69
2022/12/31 05:38:39;;;;;;;7.28;2.33;;;11.00;99.90;;;;;;5087711;28;20135;-69
2022/12/31 05:41:06;;;;;;;7.00;2.50;;;10.90;99.90;;;;;;5084361;28;20080;-68
2022/12/31 05:43:32;;;;;;;8.45;3.92;;;10.90;99.90;;;;;;5084240;28;20036;-69
2022/12/31 05:46:03;;;;;;;7.30;2.97;;;10.90;99.90;;;;;;5086104;28;20112;-69
2022/12/31 05:48:29;;;;;;;5.97;3.40;;;11.00;99.90;;;;;;5086977;28;20094;-69
2022/12/31 05:50:55;;;;;;;8.00;3.58;;;10.90;99.90;;;;;;5063559;28;20122;-69
2022/12/31 05:53:21;;;;;;;5.90;3.85;;;11.00;99.90;;;;;;5083238;28;20166;-69
2022/12/31 05:55:47;;;;;;;8.23;3.97;;;10.90;99.90;;;;;;5082983;28;20039;-69
2022/12/31 05:58:14;;;;;;;6.53;4.05;;;11.00;99.90;;;;;;5089932;28;20097;-69
2022/12/31 06:00:41;;;;;;;8.57;3.85;;;11.00;99.90;;;;;;5090031;28;20387;-68
2022/12/31 06:03:06;;;;;;;5.90;3.50;;;11.00;99.90;;;;;;5094265;28;20032;-69
2022/12/31 06:05:32;;;;;;;8.93;3.90;;;10.90;99.90;;;;;;5072818;28;20040;-68
2022/12/31 06:07:58;;;;;;;7.00;3.53;;;11.00;99.90;;;;;;5094857;28;20039;-68
2022/12/31 06:10:23;;;;;;;3.30;2.17;;;11.00;99.90;;;;;;5086998;28;20082;-68
2022/12/31 06:12:49;;;;;;;4.88;2.50;;;11.00;99.90;;;;;;5086457;28;20036;-68
2022/12/31 06:15:15;;;;;;;6.13;2.10;;;10.90;99.90;;;;;;5086675;28;20044;-68
2022/12/31 06:17:40;;;;;;;4.32;2.25;;;10.90;99.90;;;;;;5091990;28;20044;-68
2022/12/31 06:20:07;;;;;;;5.78;1.95;;;10.90;99.90;;;;;;5086520;28;20068;-68
2022/12/31 06:22:32;;;;;;;4.85;2.05;;;10.90;99.90;;;;;;5087796;28;20461;-68
2022/12/31 06:24:58;;;;;;;5.43;2.00;;;10.90;99.90;;;;;;5089193;28;20117;-68
2022/12/31 06:27:24;;;;;;;4.20;1.90;;;10.90;99.90;;;;;;5087438;28;20057;-69
2022/12/31 06:29:49;;;;;;;6.38;2.13;;;10.90;99.90;;;;;;5093514;28;20037;-68
2022/12/31 06:32:16;;;;;;;4.18;1.90;;;10.90;99.90;;;;;;5089200;28;20046;-68
2022/12/31 06:34:41;;;;;;;4.05;1.67;;;10.90;99.90;;;;;;5092615;28;20036;-67
2022/12/31 06:37:07;;;;;;;3.70;1.75;;;10.90;99.90;;;;;;5091689;28;20051;-68
2022/12/31 06:39:33;;;;;;;3.95;1.98;;;10.90;99.90;;;;;;5087719;28;20123;-68
2022/12/31 06:41:59;;;;;;;2.50;1.52;;;10.90;99.90;;;;;;5087600;28;20095;-68
2022/12/31 06:44:25;;;;;;;4.80;1.70;;;10.90;99.90;;;;;;5071961;28;20117;-68
2022/12/31 06:46:50;;;;;;;5.93;2.50;;;10.90;99.90;;;;;;5066356;28;20457;-68
2022/12/31 06:49:16;;;;;;;3.45;1.80;;;10.90;99.90;;;;;;5090238;28;20070;-69
2022/12/31 06:51:44;;;;;;;7.85;2.28;;;10.90;99.90;;;;;;5059034;28;20044;-68
2022/12/31 06:54:10;;;;;;;2.85;1.80;;;10.80;99.90;;;;;;5071122;28;20032;-68
2022/12/31 06:56:36;;;;;;;4.80;1.95;;;10.80;99.90;;;;;;5083715;28;20039;-68
2022/12/31 06:59:03;;;;;;;2.88;1.60;;;10.80;99.90;;;;;;5081401;28;20041;-68
2022/12/31 07:01:54;;;;;;;3.22;1.40;;;10.80;99.90;;;;;;5083965;28;20073;-67
2022/12/31 07:04:39;;;;;;;1.95;1.42;;;10.80;99.90;;;;;;5081201;28;20093;-67
2022/12/31 07:07:23;;;;;;;4.47;2.15;;;10.80;99.90;;;;;;5080535;28;20119;-67
2022/12/31 07:09:55;;;;;;;3.90;1.75;;;10.80;99.90;;;;;;5085944;28;20032;-67
2022/12/31 07:12:26;;;;;;;4.40;2.40;;;10.80;99.90;;;;;;5087423;28;20442;-68
2022/12/31 07:15:00;;;;;;;4.63;2.08;;;10.80;99.90;;;;;;5083320;28;20028;-68
2022/12/31 07:17:53;;;;;;;3.58;2.08;;;10.80;99.90;;;;;;5084173;28;20040;-67
2022/12/31 07:20:19;;;;;;;4.85;2.10;;;10.80;99.90;;;;;;5083032;28;20044;-68
2022/12/31 07:22:45;;;;;;;3.75;2.38;;;10.80;99.90;;;;;;5084867;28;20047;-68
2022/12/31 07:25:18;;;;;;;9.07;6.72;;;10.80;99.90;;;;;;5080266;28;20504;-68
2022/12/31 07:28:03;;;;;;;5.05;3.33;;;10.80;99.90;;;;;;5083559;28;20391;-68
2022/12/31 07:30:54;;;;;;;3.90;2.75;;;10.80;99.90;;;;;;5082820;28;20067;-68
2022/12/31 07:33:43;;;;;;;3.47;2.22;;;10.80;99.90;;;;;;5084371;28;20323;-68
2022/12/31 07:36:12;;;;;;;5.75;3.65;;;10.80;99.90;;;;;;5083153;28;20036;-68
2022/12/31 07:38:49;;;;;;;7.07;4.68;;;10.80;99.90;;;;;;5085777;28;20524;-68
2022/12/31 07:41:34;;;;;;;7.40;3.97;;;10.80;99.90;;;;;;5066635;28;20051;-68
2022/12/31 07:44:04;;;;;;;8.60;4.00;;;10.80;99.90;;;;;;5081881;28;20048;-68
2022/12/31 07:46:45;;;;;;;2.97;2.55;;;10.80;99.90;;;;;;5081051;28;20036;-68
2022/12/31 07:49:12;;;;;;;3.97;2.28;;;10.80;99.90;;;;;;5079420;28;20165;-68
2022/12/31 07:51:38;;;;;;;3.42;1.90;;;10.90;99.90;;;;;;5088169;28;20500;-68
2022/12/31 07:54:04;;;;;;;4.53;2.55;;;10.90;99.90;;;;;;5089415;28;20033;-68
2022/12/31 07:56:30;;;;;;;3.28;2.03;;;10.90;99.90;;;;;;5088220;28;20509;-68
2022/12/31 07:59:11;;;;;;;2.53;1.95;;;10.90;99.90;;;;;;5086312;28;20503;-68
2022/12/31 08:01:50;;;;;;;2.92;2.15;;;11.00;99.90;;;;;;5089942;28;20075;-68
2022/12/31 08:04:15;;;;;;;3.03;2.15;;;11.00;99.90;;;;;;5067204;28;20032;-68
2022/12/31 08:07:08;;;;;;;2.63;2.00;;;11.10;99.90;;;;;;5091565;28;20062;-68
2022/12/31 08:09:42;;;;;;;4.32;2.50;;;11.00;99.90;;;;;;5090623;28;20457;-68
2022/12/31 08:12:08;;;;;;;4.60;2.88;;;11.10;99.90;;;;;;5072867;28;20044;-68
2022/12/31 08:14:45;;;;;;;3.95;2.55;;;11.10;99.90;;;;;;5091031;28;20036;-68
2022/12/31 08:17:13;;;;;;;4.30;2.92;;;11.10;99.90;;;;;;5089586;28;20062;-68
2022/12/31 08:19:40;;;;;;;5.40;3.28;;;11.20;99.90;;;;;;5089059;28;20040;-68
2022/12/31 08:22:36;;;;;;;7.10;4.07;;;11.20;99.90;;;;;;5085009;28;20049;-68
2022/12/31 08:25:17;;;;;;;5.05;3.53;;;11.20;99.90;;;;;;5085620;28;20036;-68
2022/12/31 08:27:45;;;;;;;7.82;3.92;;;11.20;99.90;;;;;;5086804;28;20136;-68
2022/12/31 08:30:14;;;;;;;5.15;4.05;;;11.20;99.90;;;;;;5068097;28;20059;-68
2022/12/31 08:32:59;;;;;;;5.55;3.53;;;11.30;99.90;;;;;;5088408;28;20502;-68
2022/12/31 08:35:59;;;;;;;6.07;4.05;;;11.30;99.90;;;;;;5086618;28;20055;-67
2022/12/31 08:38:38;;;;;;;4.57;3.28;;;11.30;99.90;;;;;;5062846;28;20048;-67
2022/12/31 08:41:19;;;;;;;4.65;3.38;;;11.40;99.90;;;;;;5069997;28;20060;-67
2022/12/31 08:44:14;;;;;;;4.15;3.30;;;11.50;99.90;;;;;;5085749;28;20372;-67
2022/12/31 08:46:58;;;;;;;4.85;3.17;;;11.60;99.90;;;;;;5084016;28;20040;-67
2022/12/31 08:49:30;;;;;;;3.65;3.35;;;11.60;99.90;;;;;;5064651;28;20438;-67
2022/12/31 08:51:57;;;;;;;4.85;3.70;;;11.70;99.90;;;;;;5086201;28;20028;-67
2022/12/31 08:54:24;;;;;;;3.72;3.40;;;11.80;99.90;;;;;;5088098;28;20123;-67
2022/12/31 08:56:59;;;;;;;3.97;3.22;;;11.80;99.90;;;;;;5085932;28;20036;-67
2022/12/31 08:59:53;;;;;;;6.65;4.88;;;11.90;99.90;;;;;;5091043;28;20116;-68
2022/12/31 09:02:44;;;;;;;7.32;5.78;;;11.90;99.90;;;;;;5089020;28;20036;-68
2022/12/31 09:05:35;;;;;;;4.85;3.55;;;12.10;99.90;;;;;;5072795;28;20082;-68
2022/12/31 09:08:12;;;;;;;4.20;3.33;;;12.10;99.90;;;;;;5084580;28;20377;-68
2022/12/31 09:11:12;;;;;;;3.00;2.42;;;12.10;99.90;;;;;;5084464;28;20080;-68
2022/12/31 09:14:27;;;;;;;2.78;2.33;;;12.20;99.90;;;;;;5069831;28;20419;-67
2022/12/31 09:17:06;;;;;;;3.13;2.17;;;12.30;99.90;;;;;;5028593;28;20047;-67
2022/12/31 09:19:32;;;;;;;6.50;2.47;;;12.30;99.90;;;;;;5083347;28;20093;-67
2022/12/31 09:21:58;;;;;;;3.08;2.22;;;12.40;99.90;;;;;;5085435;28;20032;-67
2022/12/31 09:24:24;;;;;;;2.78;2.05;;;12.40;99.90;;;;;;5085857;28;20123;-67
2022/12/31 09:27:17;;;;;;;2.97;1.85;;;12.40;99.90;;;;;;5087230;28;20040;-67
2022/12/31 09:29:52;;;;;;;2.95;1.60;;;12.50;99.90;;;;;;5083262;28;20400;-68
2022/12/31 09:32:52;;;;;;;4.88;3.17;;;12.50;99.90;;;;;;5081004;28;20576;-68
2022/12/31 09:36:06;;;;;;;2.50;0.90;;;12.50;99.90;;;;;;5087977;28;20484;-68
2022/12/31 09:38:51;;;;;;;3.38;0.70;;;12.60;99.90;;;;;;5078927;28;20468;-68
2022/12/31 09:41:54;;;;;;;13.25;9.60;;;12.50;99.90;;;;;;5067072;28;20052;-68
2022/12/31 09:44:25;;;;;;;3.85;1.83;;;12.60;99.90;;;;;;5088703;28;20039;-67
2022/12/31 09:46:57;;;;;;;3.85;1.40;;;12.50;99.90;;;;;;5084929;28;20032;-68
2022/12/31 09:49:53;;;;;;;2.78;0.57;;;12.60;99.90;;;;;;5090345;28;20130;-68
2022/12/31 09:52:52;;;;;;;1.83;0.95;;;12.60;99.90;;;;;;5088097;28;20067;-68
2022/12/31 09:55:34;;;;;;;3.25;0.90;;;12.70;99.90;;;;;;5088315;28;20036;-68
2022/12/31 09:58:23;;;;;;;2.05;0.80;;;12.70;99.90;;;;;;5067407;28;20098;-68
2022/12/31 10:00:51;;;;;;;3.15;2.33;;;12.80;99.90;;;;;;5087310;28;20438;-68
2022/12/31 10:03:25;;;;;;;4.53;2.08;;;12.90;99.90;;;;;;5084221;28;20494;-68
2022/12/31 10:05:58;;;;;;;8.02;3.55;;;12.90;99.90;;;;;;5086226;28;20535;-68
2022/12/31 10:08:31;;;;;;;1.58;0.75;;;12.90;99.90;;;;;;5083224;28;20050;-68
2022/12/31 10:11:04;;;;;;;1.88;0.50;;;13.00;99.90;;;;;;5083604;28;20522;-67
2022/12/31 10:13:42;;;;;;;2.03;0.85;;;13.00;99.90;;;;;;5080954;28;20077;-67
2022/12/31 10:16:40;;;;;;;2.63;1.60;;;13.10;99.90;;;;;;5083302;28;20456;-67
2022/12/31 10:19:20;;;;;;;2.15;0.80;;;13.10;99.90;;;;;;5080790;28;20360;-68
2022/12/31 10:22:13;;;;;;;2.00;1.35;;;13.10;99.90;;;;;;5082514;28;20043;-67
2022/12/31 10:25:06;;;;;;;3.55;0.80;;;13.10;99.90;;;;;;5075605;28;20043;-68
2022/12/31 10:27:50;;;;;;;2.38;0.60;;;13.10;99.90;;;;;;5075598;28;20085;-67
2022/12/31 10:30:21;;;;;;;4.57;1.70;;;13.10;99.90;;;;;;5079668;28;20079;-68
2022/12/31 10:33:13;;;;;;;4.03;1.40;;;13.10;99.90;;;;;;5081743;28;20032;-67
2022/12/31 10:35:53;;;;;;;2.78;1.35;;;13.10;99.90;;;;;;5083230;28;20414;-68
2022/12/31 10:38:37;;;;;;;3.45;1.45;;;13.20;99.90;;;;;;5058298;28;20037;-68
2022/12/31 10:41:47;;;;;;;2.50;0.50;;;13.20;99.90;;;;;;5084332;28;20040;-68
2022/12/31 10:44:47;;;;;;;6.47;0.77;;;13.20;99.90;;;;;;5076583;28;20048;-67
2022/12/31 10:47:44;;;;;;;1.90;0.60;;;13.20;99.90;;;;;;5065033;28;20057;-67
2022/12/31 10:50:41;;;;;;;3.28;1.05;;;13.20;99.90;;;;;;5059561;28;20368;-68
2022/12/31 10:53:31;;;;;;;3.70;0.90;;;13.20;99.90;;;;;;5075686;28;20044;-68
2022/12/31 10:56:21;;;;;;;3.85;1.15;;;13.20;99.90;;;;;;5075559;28;20036;-68
2022/12/31 10:59:21;;;;;;;5.97;0.88;;;13.20;99.90;;;;;;5066243;28;20048;-67
2022/12/31 11:01:56;;;;;;;3.10;1.30;;;13.20;99.90;;;;;;5081724;28;20067;-68
2022/12/31 11:05:26;;;;;;;5.45;1.23;;;13.30;99.90;;;;;;5080406;28;20119;-68
2022/12/31 11:08:07;;;;;;;4.43;1.00;;;13.30;99.90;;;;;;4961336;28;20050;-68
2022/12/31 11:10:38;;;;;;;8.43;1.35;;;13.20;99.90;;;;;;4967536;28;20045;-67
2022/12/31 11:13:31;;;;;;;4.18;0.88;;;13.10;99.90;;;;;;5036255;28;20044;-66
2022/12/31 11:16:11;;;;;;;3.60;1.10;;;13.20;99.90;;;;;;5072876;28;20039;-66
2022/12/31 11:18:55;;;;;;;4.57;0.90;;;13.20;99.90;;;;;;5061966;28;20044;-66
2022/12/31 11:21:34;;;;;;;6.07;1.30;;;13.10;99.90;;;;;;5082014;28;20448;-67
2022/12/31 11:24:17;;;;;;;5.20;1.60;;;13.00;99.90;;;;;;5079385;28;20487;-67
2022/12/31 11:26:57;;;;;;;4.38;1.02;;;13.00;99.90;;;;;;5078541;28;20082;-67
2022/12/31 11:29:50;;;;;;;7.85;3.80;;;13.00;99.90;;;;;;5087959;28;20036;-67
2022/12/31 11:32:54;;;;;;;4.15;1.02;;;13.00;99.90;;;;;;5070067;28;20039;-67
2022/12/31 11:36:01;;;;;;;12.45;5.53;;;13.00;99.90;;;;;;5080716;28;20029;-67
2022/12/31 11:38:39;;;;;;;5.85;1.75;;;13.00;99.90;;;;;;5084486;28;20588;-67
2022/12/31 11:41:15;;;;;;;7.32;3.15;;;12.90;99.90;;;;;;5083931;28;20482;-66
2022/12/31 11:43:52;;;;;;;7.38;2.53;;;13.00;99.90;;;;;;5087799;28;20048;-67
2022/12/31 11:46:37;;;;;;;9.85;3.38;;;13.10;99.90;;;;;;5084697;28;20029;-67
2022/12/31 11:49:27;;;;;;;6.80;3.60;;;13.10;99.90;;;;;;5088142;28;20041;-67
2022/12/31 11:52:26;;;;;;;13.80;4.80;;;13.10;99.90;;;;;;5068220;28;20139;-67
2022/12/31 11:55:10;;;;;;;5.70;2.75;;;13.10;99.90;;;;;;5087589;28;20039;-67
2022/12/31 11:57:38;;;;;;;7.10;3.80;;;13.20;99.90;;;;;;5064220;28;20081;-67
2022/12/31 12:00:19;;;;;;;5.43;2.25;;;13.20;99.90;;;;;;5085817;28;20043;-67
2022/12/31 12:02:51;;;;;;;4.30;2.13;;;13.20;99.90;;;;;;5082663;28;20044;-66
2022/12/31 12:05:25;;;;;;;6.03;3.13;;;13.30;99.90;;;;;;5082381;28;20029;-67
2022/12/31 12:07:52;;;;;;;8.77;2.20;;;13.30;99.90;;;;;;5085778;28;20110;-67
2022/12/31 12:10:23;;;;;;;6.78;2.75;;;13.30;99.90;;;;;;5087354;28;20032;-67
2022/12/31 12:12:50;;;;;;;8.18;5.43;;;13.40;99.90;;;;;;5086448;28;20045;-67
2022/12/31 12:15:23;;;;;;;5.85;2.92;;;13.50;99.90;;;;;;5088692;28;20036;-67
2022/12/31 12:17:53;;;;;;;6.30;1.45;;;13.50;99.90;;;;;;5086243;28;20036;-67
2022/12/31 12:20:29;;;;;;;4.40;1.58;;;13.50;99.90;;;;;;5084506;28;20029;-67
2022/12/31 12:22:56;;;;;;;5.63;1.98;;;13.50;99.90;;;;;;5087046;28;20079;-67
2022/12/31 12:25:25;;;;;;;7.78;4.75;;;13.60;99.90;;;;;;5083303;28;21184;-67
2022/12/31 12:27:52;;;;;;;7.60;4.07;;;13.70;99.90;;;;;;5081655;28;20546;-67
2022/12/31 12:30:21;;;;;;;4.35;1.10;;;13.70;99.90;;;;;;5063365;28;20059;-67
2022/12/31 12:33:14;;;;;;;9.18;4.88;;;13.70;99.90;;;;;;5086296;28;20047;-68
2022/12/31 12:35:40;;;;;;;7.63;6.78;;;13.70;99.90;;;;;;5084097;28;20043;-67
2022/12/31 12:38:17;;;;;;;5.32;2.97;;;13.70;99.90;;;;;;5064030;28;20044;-67
2022/12/31 12:40:59;;;;;;;5.65;0.90;;;13.70;99.90;;;;;;5081147;28;20048;-67
2022/12/31 12:43:28;;;;;;;1.80;0.63;;;13.80;99.90;;;;;;5078571;28;20047;-67
2022/12/31 12:45:59;;;;;;;3.33;1.23;;;13.70;99.90;;;;;;5082059;28;20399;-67
2022/12/31 12:48:36;;;;;;;3.75;0.80;;;13.80;99.90;;;;;;5079232;28;20036;-67
2022/12/31 12:51:28;;;;;;;5.63;3.95;;;13.70;99.90;;;;;;5080528;28;20032;-67
2022/12/31 12:54:03;;;;;;;8.27;4.35;;;13.70;99.90;;;;;;5079619;28;20033;-67
2022/12/31 12:56:42;;;;;;;;;;;13.60;99.90;;;;;;5085860;28;20032;-67
2022/12/31 12:59:47;;;;;;;10.38;9.00;;;13.50;99.90;;;;;;5064440;28;20242;-68
2022/12/31 13:02:13;;;;;;;;;;;13.60;99.90;;;;;;5046620;28;20044;-68
2022/12/31 13:05:06;;;;;;;10.05;4.93;;;13.50;99.90;;;;;;5081942;28;19923;-68
2022/12/31 13:07:38;;;;;;;22.58;14.82;;;13.50;99.90;;;;;;5080635;28;20041;-68
2022/12/31 13:10:29;;;;;;;6.20;4.60;;;13.50;99.90;;;;;;5076902;28;20044;-68
2022/12/31 13:13:26;;;;;;;3.92;1.25;;;13.50;99.90;;;;;;5064338;28;20087;-68
2022/12/31 13:16:28;;;;;;;7.30;2.50;;;13.40;99.90;;;;;;5071045;28;20044;-67
2022/12/31 13:19:04;;;;;;;16.65;11.43;;;13.40;99.90;;;;;;5081581;28;20075;-67
2022/12/31 13:21:52;;;;;;;3.85;0.60;;;13.40;99.90;;;;;;5080710;28;20334;-66
2022/12/31 13:24:27;;;;;;;4.15;0.75;;;13.30;99.90;;;;;;5081784;28;20047;-66
2022/12/31 13:27:31;;;;;;;5.72;1.10;;;13.30;99.90;;;;;;5070738;28;20041;-66
2022/12/31 13:30:01;;;;;;;4.00;0.85;;;13.20;99.90;;;;;;5031863;28;20064;-66
2022/12/31 13:32:43;;;;;;;5.60;2.35;;;13.20;99.90;;;;;;5082073;28;20059;-66
2022/12/31 13:35:32;;;;;;;7.25;1.20;;;13.20;99.90;;;;;;5081731;28;20051;-66
2022/12/31 13:38:30;;;;;;;5.82;1.17;;;13.10;99.90;;;;;;5077601;28;20097;-65
2022/12/31 13:41:10;;;;;;;4.28;0.90;;;13.10;99.90;;;;;;5048702;28;20389;-66